createdAt,value
2017-12-30T00:01:34.188Z,99580.72
2017-12-30T00:07:05.232Z,99580.29
2017-12-30T00:09:47.096Z,99593.36
2017-12-30T00:12:19.760Z,99602.57
2017-12-30T00:14:51.803Z,99607.56
2017-12-30T00:22:41.632Z,99625.86
2017-12-30T00:28:24.313Z,99622.23
2017-12-30T00:30:59.413Z,99622.42
2017-12-30T00:34:16.517Z,99633.28
2017-12-30T00:36:45.448Z,99637.21
2017-12-30T00:39:14.188Z,99641.44
2017-12-30T00:41:58.952Z,99629.45
2017-12-30T00:44:27.831Z,99634.42
2017-12-30T00:46:56.049Z,99636.80
2017-12-30T00:49:23.854Z,99649.97
2017-12-30T00:51:51.983Z,99645.94
2017-12-30T00:54:20.439Z,99635.55
2017-12-30T00:56:50.566Z,99651.02
2017-12-30T00:59:18.418Z,99628.88
2017-12-30T01:01:49.310Z,99637.20
2017-12-30T01:04:17.692Z,99636.44
2017-12-30T01:06:45.982Z,99625.11
2017-12-30T01:09:14.830Z,99619.79
2017-12-30T01:11:43.775Z,99637.52
2017-12-30T01:14:11.891Z,99633.95
2017-12-30T01:16:39.807Z,99641.19
2017-12-30T01:19:07.661Z,99636.96
2017-12-30T01:21:35.844Z,99640.94
2017-12-30T01:24:03.595Z,99637.16
2017-12-30T01:26:31.372Z,99648.39
2017-12-30T01:28:59.352Z,99649.52
2017-12-30T01:31:27.092Z,99654.42
2017-12-30T01:33:56.091Z,99663.73
2017-12-30T01:36:25.075Z,99671.33
2017-12-30T01:38:53.119Z,99666.20
2017-12-30T01:41:21.206Z,99678.31
2017-12-30T01:43:49.281Z,99675.21
2017-12-30T01:46:17.978Z,99672.68
2017-12-30T01:48:57.411Z,99668.23
2017-12-30T01:51:25.116Z,99671.59
2017-12-30T01:53:53.718Z,99659.80
2017-12-30T01:56:21.583Z,99660.26
2017-12-30T01:58:49.684Z,99666.31
2017-12-30T02:01:17.325Z,99669.31
2017-12-30T02:03:45.046Z,99651.84
2017-12-30T02:06:13.881Z,99652.88
2017-12-30T02:08:41.987Z,99647.76
2017-12-30T02:11:09.772Z,99651.06
2017-12-30T02:13:37.873Z,99652.63
2017-12-30T02:16:05.656Z,99655.82
2017-12-30T02:18:33.408Z,99652.57
2017-12-30T02:21:02.628Z,99641.23
2017-12-30T02:23:30.442Z,99646.20
2017-12-30T02:25:58.473Z,99643.41
2017-12-30T02:28:26.293Z,99626.25
2017-12-30T02:30:54.106Z,99640.00
2017-12-30T02:33:22.304Z,99631.84
2017-12-30T02:35:50.099Z,99638.97
2017-12-30T02:38:17.832Z,99637.52
2017-12-30T02:40:45.786Z,99625.52
2017-12-30T02:43:15.091Z,99623.77
2017-12-30T02:45:42.899Z,99628.32
2017-12-30T02:48:14.441Z,99630.95
2017-12-30T02:50:42.490Z,99632.05
2017-12-30T02:53:11.144Z,99631.02
2017-12-30T02:55:39.581Z,99626.53
2017-12-30T02:58:07.329Z,99625.36
2017-12-30T03:00:35.173Z,99623.70
2017-12-30T03:03:05.265Z,99636.61
2017-12-30T03:05:34.232Z,99624.90
2017-12-30T03:08:03.905Z,99627.36
2017-12-30T03:10:34.565Z,99620.20
2017-12-30T03:13:02.376Z,99613.58
2017-12-30T03:15:30.157Z,99615.48
2017-12-30T03:17:57.965Z,99613.47
2017-12-30T03:20:25.757Z,99612.13
2017-12-30T03:22:59.535Z,99624.06
2017-12-30T03:25:29.936Z,99630.73
2017-12-30T03:27:59.977Z,99632.54
2017-12-30T03:30:28.980Z,99655.28
2017-12-30T03:32:57.494Z,99660.71
2017-12-30T03:35:26.307Z,99668.72
2017-12-30T03:37:54.230Z,99674.66
2017-12-30T03:40:24.238Z,99671.61
2017-12-30T03:43:09.578Z,99666.95
2017-12-30T03:45:42.748Z,99666.55
2017-12-30T03:48:16.192Z,99652.70
2017-12-30T03:50:45.457Z,99649.53
2017-12-30T03:53:14.357Z,99649.33
2017-12-30T03:55:48.367Z,99657.09
2017-12-30T03:58:20.894Z,99664.06
2017-12-30T04:01:11.576Z,99660.66
2017-12-30T04:03:42.002Z,99659.63
2017-12-30T04:06:11.367Z,99655.44
2017-12-30T04:08:41.510Z,99652.66
2017-12-30T04:11:11.656Z,99642.56
2017-12-30T04:13:43.982Z,99636.20
2017-12-30T04:16:16.178Z,99638.17
2017-12-30T04:18:49.363Z,99625.63
2017-12-30T04:21:22.973Z,99639.27
2017-12-30T04:23:53.537Z,99627.73
2017-12-30T04:26:28.555Z,99625.94
2017-12-30T04:29:03.954Z,99634.05
2017-12-30T04:31:33.343Z,99630.33
2017-12-30T04:34:02.995Z,99634.19
2017-12-30T04:36:31.877Z,99630.00
2017-12-30T04:38:59.728Z,99640.23
2017-12-30T04:41:27.668Z,99628.35
2017-12-30T04:43:57.679Z,99627.87
2017-12-30T04:46:27.148Z,99624.05
2017-12-30T04:48:56.857Z,99623.49
2017-12-30T04:51:24.638Z,99621.88
2017-12-30T04:53:52.427Z,99628.94
2017-12-30T04:56:20.184Z,99635.70
2017-12-30T04:58:51.767Z,99632.41
2017-12-30T05:01:25.229Z,99631.22
2017-12-30T05:03:59.349Z,99633.31
2017-12-30T05:06:31.036Z,99634.30
2017-12-30T05:09:00.557Z,99624.27
2017-12-30T07:43:55.480Z,99457.56
2017-12-30T07:46:24.995Z,99459.43
2017-12-30T07:49:05.672Z,99451.13
2017-12-30T07:51:38.223Z,99450.50
2017-12-30T07:54:21.404Z,99443.01
2017-12-30T07:56:54.106Z,99438.94
2017-12-30T07:59:28.607Z,99427.75
2017-12-30T08:02:08.812Z,99426.50
2017-12-30T08:04:39.772Z,99420.46
2017-12-30T08:07:11.930Z,99412.89
2017-12-30T08:09:47.825Z,99395.45
2017-12-30T08:12:16.610Z,99390.24
2017-12-30T08:14:48.975Z,99381.27
2017-12-30T08:17:17.660Z,99374.77
2017-12-30T08:19:45.851Z,99362.84
2017-12-30T08:22:14.698Z,99356.46
2017-12-30T08:27:24.595Z,99346.19
2017-12-30T08:29:53.470Z,99334.95
2017-12-30T08:32:22.438Z,99317.66
2017-12-30T08:34:50.174Z,99304.41
2017-12-30T08:37:17.980Z,99299.20
2017-12-30T08:39:45.741Z,99288.88
2017-12-30T08:42:13.483Z,99276.75
2017-12-30T08:44:41.134Z,99274.73
2017-12-30T08:47:08.933Z,99255.17
2017-12-30T08:49:36.712Z,99248.02
2017-12-30T08:52:07.435Z,99242.70
2017-12-30T08:54:35.130Z,99237.48
2017-12-30T08:57:03.061Z,99234.74
2017-12-30T08:59:30.963Z,99226.59
2017-12-30T09:02:00.370Z,99210.81
2017-12-30T09:04:28.124Z,99201.98
2017-12-30T09:06:56.283Z,99203.83
2017-12-30T09:09:24.777Z,99191.97
2017-12-30T09:11:55.063Z,99190.38
2017-12-30T09:14:22.934Z,99181.40
2017-12-30T09:16:53.008Z,99170.67
2017-12-30T14:36:16.011Z,99111.50
2017-12-30T14:38:51.850Z,99127.05
2017-12-30T14:41:19.661Z,99137.13
2017-12-30T14:43:48.209Z,99168.04
2017-12-30T14:46:16.347Z,99164.53
2017-12-30T14:48:52.746Z,99167.44
2017-12-30T14:51:24.368Z,99182.09
2017-12-30T14:53:59.184Z,99172.08
2017-12-30T14:56:28.327Z,99193.69
2017-12-30T14:58:56.070Z,99215.13
2017-12-30T15:01:23.816Z,99210.62
2017-12-30T15:03:52.438Z,99206.67
2017-12-30T15:06:20.818Z,99222.33
2017-12-30T15:08:49.058Z,99227.27
2017-12-30T15:11:19.000Z,99232.17
2017-12-30T15:13:46.700Z,99241.23
2017-12-30T15:16:14.513Z,99245.38
2017-12-30T15:18:42.668Z,99257.56
2017-12-30T15:21:10.829Z,99260.67
2017-12-30T15:23:38.674Z,99267.04
2017-12-30T15:26:06.342Z,99285.11
2017-12-30T15:28:34.008Z,99285.34
2017-12-30T15:31:02.078Z,99307.08
2017-12-30T15:33:29.770Z,99319.70
2017-12-30T15:35:57.818Z,99309.78
2017-12-30T15:38:26.040Z,99284.70
2017-12-30T15:40:55.695Z,99281.94
2017-12-30T15:43:23.520Z,99288.34
2017-12-30T15:45:51.177Z,99296.66
2017-12-30T15:48:18.858Z,99310.05
2017-12-30T15:50:46.486Z,99303.86
2017-12-30T15:53:14.212Z,99323.27
2017-12-30T15:55:41.880Z,99322.63
2017-12-30T15:58:09.576Z,99345.25
2017-12-30T16:00:37.472Z,99351.18
2017-12-30T16:03:15.150Z,99353.16
2017-12-30T16:05:44.282Z,99342.61
2017-12-30T16:08:12.707Z,99354.28
2017-12-30T16:10:51.674Z,99357.05
2017-12-30T16:13:23.490Z,99381.63
2017-12-30T16:15:55.013Z,99376.97
2017-12-30T16:18:23.210Z,99382.81
2017-12-30T16:20:57.629Z,99391.77
2017-12-30T16:29:39.538Z,99427.34
2017-12-30T16:40:13.092Z,99439.25
2017-12-30T16:42:56.406Z,99441.18
2017-12-30T16:45:56.122Z,99440.94
2017-12-30T19:44:06.249Z,99763.82
2017-12-30T19:46:38.153Z,99765.20
2017-12-30T19:49:07.171Z,99764.98
2017-12-30T19:51:41.649Z,99763.25
2017-12-30T19:54:14.605Z,99759.83
2017-12-30T19:56:46.000Z,99754.14
2017-12-30T19:59:15.782Z,99763.78
2017-12-30T20:01:47.881Z,99759.22
2017-12-30T20:04:19.547Z,99768.89
2017-12-30T20:06:48.585Z,99778.17
2017-12-30T20:11:51.657Z,99801.75
2017-12-30T20:14:19.979Z,99806.14
2017-12-30T20:16:48.956Z,99802.25
2017-12-30T20:19:16.882Z,99808.94
2017-12-30T20:21:45.871Z,99799.48
2017-12-30T20:24:14.825Z,99806.05
2017-12-30T21:07:12.125Z,99890.88
2017-12-30T21:09:44.473Z,99881.83
2017-12-30T21:18:05.030Z,99893.95
2017-12-30T21:23:27.226Z,99898.75
2017-12-30T21:25:58.417Z,99897.72
2017-12-30T21:28:27.772Z,99895.47
2017-12-30T21:34:08.802Z,99926.53
2017-12-30T21:42:24.631Z,99938.53
2017-12-30T22:06:02.922Z,99982.17
2017-12-30T22:11:12.602Z,100012.53
2017-12-30T22:13:45.089Z,100020.09
2017-12-30T22:16:17.904Z,100013.17
2017-12-30T22:21:20.969Z,100016.27
2017-12-30T22:26:26.540Z,100027.55
2017-12-30T22:29:07.061Z,100024.42
2017-12-30T22:31:39.536Z,100030.78
2017-12-30T22:34:09.909Z,100031.32
2017-12-30T22:36:47.896Z,100028.94
2017-12-30T22:39:19.239Z,100038.55
2017-12-30T22:41:50.506Z,100040.98
2017-12-30T22:44:20.035Z,100045.42
2017-12-30T22:46:55.680Z,100055.70
2017-12-30T22:49:30.379Z,100066.66
